KBOK

Details ICAO KBOK
Name Brookings State
Region United States
Timezone America/Los_Angeles (UTC-8.0)
Plans Departing 0
Arriving 13
Stats Elevation 459 ft / 140 m (AMSL)
Location 42.073864° -124.289776°
Runways 1
Magnetic Variation 14.736° E
Sunrise 2017-12-10 15:36:15 UTC / 2017-12-10 07:36:15 Local
Sunset 2017-12-11 00:46:54 UTC / 2017-12-10 16:46:54 Local
Advertisement - Login to hide

Runways

ID Width Length Bearing (true) Bearing (mag) Surface Threshold Offset Overrun Length
12 59 ft / 18 m 2,903 ft / 885 m 143.45° 128.71° Asphalt 0 ft / 0 m 230 ft / 70 m
30 59 ft / 18 m 2,903 ft / 885 m 323.45° 308.71° Asphalt 0 ft / 0 m 230 ft / 70 m

Map

Weather


0- 5 10 15 20 25 30 35+ Temperature / ° C

Clouds and Precipitation
Forecast for 2017-12-11 12:00 UTC. Updated 15 minutes ago

Ground ~20,000 ft ~40,000 ft Winds

METAR

KBOK 110556Z AUTO 11003KT 10SM CLR 08/03 A3023 RMK AO2 SLP255 T00830028 10167 20083 51013

TAF

Not found

Frequencies

Recorded 132.02 MHz WX ASOS
Unicom 122.80 MHz CTAF/UNICOM
Recorded 119.92 MHz WX ASOS @ CEC
Warning: Do not use this data for real-world aviation or navigation. No guarantee of current accuracy is given.